Time;durP1;ratioP1;P1;durP2;ratioP2;P2;SDS_P1;SDS_P2;PMS_P1;PMS_P2;Temp;Humidity;BMP_temperature;BMP_pressure;BME280_temperature;BME280_humidity;BME280_pressure;Samples;Min_cycle;Max_cycle;Signal;HPM_P1;HPM_P2
2020/12/07 16:16:39;;;;;;;7.55;4.00;;;;;;;;;;5089795;27;20356;-51
2020/12/07 16:19:05;;;;;;;11.43;4.30;;;;;;;;;;5089442;28;20024;-52
2020/12/07 16:21:32;;;;;;;9.35;4.45;;;;;;;;;;5088027;28;20476;-52
2020/12/07 16:23:58;;;;;;;7.10;4.18;;;;;;;;;;5089101;28;20456;-52
2020/12/07 16:26:24;;;;;;;7.32;4.00;;;;;;;;;;5090197;28;20042;-52
2020/12/07 16:28:51;;;;;;;6.78;3.80;;;;;;;;;;5088878;28;20070;-51
2020/12/07 17:46:14;;;;;;;6.97;4.28;;;21.20;87.90;;;;;;5109616;27;20357;-59
2020/12/07 17:48:40;;;;;;;7.82;4.57;;;20.70;89.00;;;;;;5091321;28;20028;-59
2020/12/07 17:51:06;;;;;;;7.63;4.38;;;20.60;88.90;;;;;;5109482;28;20020;-59
2020/12/07 17:53:31;;;;;;;6.88;4.50;;;20.50;89.20;;;;;;5109709;28;20093;-59
2020/12/07 17:55:57;;;;;;;13.35;5.22;;;20.40;89.40;;;;;;5109655;28;20024;-59
2020/12/07 17:58:22;;;;;;;7.15;4.45;;;20.40;89.60;;;;;;5107891;28;20110;-59
2020/12/07 18:00:48;;;;;;;9.02;4.43;;;20.40;89.90;;;;;;5091003;28;20027;-59
2020/12/07 18:03:16;;;;;;;9.32;4.75;;;20.30;90.00;;;;;;5091255;28;20066;-59
2020/12/07 18:05:42;;;;;;;10.73;5.50;;;20.30;90.00;;;;;;5109344;28;20027;-59
2020/12/07 18:08:10;;;;;;;7.75;5.28;;;20.20;90.10;;;;;;5109266;28;20023;-59
2020/12/07 18:10:39;;;;;;;13.70;5.53;;;20.20;90.10;;;;;;5109022;28;20012;-58
2020/12/07 18:13:05;;;;;;;8.70;5.05;;;20.20;90.10;;;;;;5109407;28;20020;-58
2020/12/07 18:15:32;;;;;;;8.48;5.45;;;20.10;90.10;;;;;;5108958;28;20015;-58
2020/12/07 18:17:57;;;;;;;10.35;5.63;;;20.10;90.20;;;;;;5109477;28;20024;-58
2020/12/07 18:20:23;;;;;;;13.10;6.38;;;20.10;90.20;;;;;;5109229;28;20447;-59
2020/12/07 18:22:49;;;;;;;7.60;5.10;;;20.10;90.20;;;;;;5108992;28;20024;-58
2020/12/07 18:25:15;;;;;;;7.95;4.90;;;20.10;90.30;;;;;;5107918;28;20039;-58
2020/12/07 18:27:40;;;;;;;9.73;5.93;;;20.00;90.30;;;;;;5108889;28;20024;-59
2020/12/07 18:30:06;;;;;;;9.10;5.78;;;20.00;90.30;;;;;;5108523;28;20353;-59
2020/12/07 18:32:31;;;;;;;6.80;5.55;;;20.00;90.30;;;;;;5108724;28;20077;-59
2020/12/07 18:34:57;;;;;;;8.23;5.47;;;20.00;90.30;;;;;;5108872;28;20086;-59
2020/12/07 18:37:24;;;;;;;9.75;5.45;;;19.90;90.30;;;;;;5108459;28;20042;-58
2020/12/07 18:39:50;;;;;;;8.10;5.45;;;19.90;90.30;;;;;;5109041;28;20100;-58
2020/12/07 18:42:16;;;;;;;8.63;5.00;;;19.90;90.30;;;;;;5090803;28;20024;-58
2020/12/07 18:44:42;;;;;;;12.00;5.13;;;19.90;90.30;;;;;;5108714;28;20036;-58
2020/12/07 18:47:07;;;;;;;7.07;4.95;;;19.90;90.30;;;;;;5108565;28;20059;-58
2020/12/07 18:49:33;;;;;;;7.72;5.50;;;19.90;90.30;;;;;;5107071;28;20059;-58
2020/12/07 18:51:59;;;;;;;9.82;5.78;;;19.80;90.30;;;;;;5108343;28;20474;-58
2020/12/07 18:54:25;;;;;;;9.38;5.95;;;19.80;90.30;;;;;;5108824;28;20012;-58
2020/12/07 18:56:51;;;;;;;7.43;5.32;;;19.90;90.30;;;;;;5099008;28;20036;-58
2020/12/07 18:59:17;;;;;;;11.55;7.13;;;19.80;90.30;;;;;;5095231;28;20027;-58
2020/12/07 19:01:43;;;;;;;10.52;5.63;;;19.80;90.30;;;;;;5094843;28;20024;-58
2020/12/07 19:04:09;;;;;;;7.00;5.70;;;19.80;90.30;;;;;;5075917;28;20028;-58
2020/12/07 19:06:34;;;;;;;8.73;4.95;;;19.80;90.30;;;;;;5076708;28;20116;-57
2020/12/07 19:09:00;;;;;;;8.13;5.40;;;19.80;90.30;;;;;;5094048;28;20406;-59
2020/12/07 19:11:26;;;;;;;8.45;5.32;;;19.80;90.40;;;;;;5094631;28;20039;-59
2020/12/07 19:13:54;;;;;;;8.50;5.78;;;19.70;90.40;;;;;;5094674;28;20045;-59
2020/12/07 19:16:20;;;;;;;9.75;5.82;;;19.70;90.40;;;;;;5092627;28;20474;-58
2020/12/07 19:18:46;;;;;;;9.38;5.95;;;19.70;90.40;;;;;;5094581;28;20139;-59
2020/12/07 19:21:11;;;;;;;10.82;5.97;;;19.70;90.40;;;;;;5094298;28;20424;-58
2020/12/07 19:23:37;;;;;;;7.40;5.20;;;19.70;90.50;;;;;;5076500;28;20380;-58
2020/12/07 19:26:04;;;;;;;10.15;5.95;;;19.70;90.50;;;;;;5094386;28;20040;-58
2020/12/07 19:28:30;;;;;;;13.98;7.05;;;19.70;90.50;;;;;;5094174;28;20054;-58
2020/12/07 19:30:56;;;;;;;11.23;6.03;;;19.70;90.60;;;;;;5094316;28;20027;-58
2020/12/07 19:33:22;;;;;;;12.32;7.45;;;19.70;90.60;;;;;;5075315;28;20190;-57
2020/12/07 19:35:47;;;;;;;9.05;6.60;;;19.70;90.60;;;;;;5093831;28;20020;-58
2020/12/07 19:38:13;;;;;;;10.55;7.07;;;19.70;90.60;;;;;;5094154;28;20038;-58
2020/12/07 19:40:40;;;;;;;10.18;6.43;;;19.60;90.60;;;;;;5094271;28;20095;-58
2020/12/07 19:43:07;;;;;;;11.82;7.57;;;19.60;90.60;;;;;;5092374;28;20114;-57
2020/12/07 19:45:34;;;;;;;17.02;9.05;;;19.60;90.50;;;;;;5093912;28;20345;-57
2020/12/07 19:48:00;;;;;;;16.35;9.25;;;19.60;90.50;;;;;;5093866;28;20107;-57
2020/12/07 19:50:25;;;;;;;16.10;9.73;;;19.60;90.50;;;;;;5093473;28;20088;-58
2020/12/07 19:52:51;;;;;;;19.98;10.18;;;19.60;90.50;;;;;;5093749;28;20034;-57
2020/12/07 19:55:17;;;;;;;14.65;9.05;;;19.60;90.50;;;;;;5093841;28;20028;-58
2020/12/07 19:57:43;;;;;;;16.33;9.35;;;19.60;90.50;;;;;;5094168;28;20341;-59
2020/12/07 20:00:11;;;;;;;15.27;8.73;;;19.60;90.60;;;;;;5093405;28;20103;-59
2020/12/07 20:02:38;;;;;;;13.55;9.52;;;19.60;90.70;;;;;;5094150;28;20035;-58
2020/12/07 20:05:05;;;;;;;15.32;9.48;;;19.60;90.70;;;;;;5093724;28;20039;-57
2020/12/07 20:07:30;;;;;;;15.02;9.30;;;19.60;90.70;;;;;;5092400;28;20024;-59
2020/12/07 20:09:56;;;;;;;17.17;9.25;;;19.60;90.70;;;;;;5091761;28;20527;-59
2020/12/07 20:12:27;;;;;;;14.30;8.60;;;19.60;90.80;;;;;;5093678;28;20341;-60
2020/12/07 20:14:55;;;;;;;15.20;8.82;;;19.60;90.80;;;;;;5078002;28;20047;-60
2020/12/07 20:17:23;;;;;;;14.32;9.38;;;19.60;90.80;;;;;;5093982;28;20027;-60
2020/12/07 20:19:48;;;;;;;18.10;9.43;;;19.60;90.80;;;;;;5093618;28;20446;-59
2020/12/07 20:22:14;;;;;;;13.60;8.98;;;19.60;90.80;;;;;;5093787;28;20102;-59
2020/12/07 20:24:39;;;;;;;17.55;9.35;;;19.50;90.80;;;;;;5092999;28;20069;-60
2020/12/07 20:27:06;;;;;;;15.60;9.73;;;19.50;90.80;;;;;;5075503;28;20043;-60
2020/12/07 20:29:32;;;;;;;13.75;8.82;;;19.50;90.80;;;;;;5093137;28;20016;-60
2020/12/07 20:31:57;;;;;;;14.57;8.60;;;19.50;90.80;;;;;;5090891;28;20039;-60
2020/12/07 20:34:23;;;;;;;15.10;8.32;;;19.50;90.80;;;;;;5093124;28;20049;-59
2020/12/07 20:36:50;;;;;;;14.30;9.40;;;19.50;90.80;;;;;;5092043;28;20107;-59
2020/12/07 20:39:16;;;;;;;13.50;8.57;;;19.50;90.80;;;;;;5093214;28;20087;-59
2020/12/07 20:41:42;;;;;;;14.90;8.57;;;19.50;90.80;;;;;;5092790;28;20077;-59
2020/12/07 20:44:08;;;;;;;15.20;9.00;;;19.50;90.80;;;;;;5074067;28;20048;-59
2020/12/07 20:46:34;;;;;;;16.50;8.73;;;19.50;90.80;;;;;;5093050;28;20023;-59
2020/12/07 20:49:00;;;;;;;16.45;9.13;;;19.50;90.80;;;;;;5074637;28;20095;-59
2020/12/07 20:51:26;;;;;;;15.93;9.98;;;19.50;90.80;;;;;;5093164;28;20066;-59
2020/12/07 20:53:52;;;;;;;13.60;8.65;;;19.50;90.80;;;;;;5092859;28;20024;-59
2020/12/07 20:56:18;;;;;;;18.40;9.48;;;19.50;91.10;;;;;;5092855;28;20016;-59
2020/12/07 20:58:43;;;;;;;14.25;9.20;;;19.50;90.80;;;;;;5074334;28;20020;-58
2020/12/07 21:01:13;;;;;;;16.35;9.45;;;19.50;90.80;;;;;;5092554;28;20055;-58
2020/12/07 21:03:39;;;;;;;15.70;9.15;;;19.50;90.80;;;;;;5090747;28;20053;-56
2020/12/07 21:06:05;;;;;;;15.98;9.90;;;19.50;90.70;;;;;;5092162;28;20036;-57
2020/12/07 21:08:31;;;;;;;17.50;9.63;;;19.50;90.80;;;;;;5092472;28;20020;-56
2020/12/07 21:10:56;;;;;;;18.58;9.25;;;19.50;90.80;;;;;;5092245;28;20410;-56
2020/12/07 21:13:22;;;;;;;16.98;9.77;;;19.50;90.80;;;;;;5091488;28;20074;-56
2020/12/07 21:15:48;;;;;;;15.00;9.60;;;19.50;90.80;;;;;;5092222;28;20031;-56
2020/12/07 21:18:14;;;;;;;16.33;9.55;;;19.50;90.80;;;;;;5092230;28;20122;-56
2020/12/07 21:20:39;;;;;;;19.52;10.20;;;19.50;90.70;;;;;;5092106;28;20388;-56
2020/12/07 21:23:05;;;;;;;21.67;9.80;;;19.50;90.70;;;;;;5087382;28;20337;-56
2020/12/07 21:25:31;;;;;;;15.95;9.48;;;19.50;90.70;;;;;;5091750;28;20032;-56
2020/12/07 21:27:56;;;;;;;15.95;9.80;;;19.50;90.70;;;;;;5091514;28;20098;-56
2020/12/07 21:30:22;;;;;;;16.20;9.77;;;19.50;90.70;;;;;;5090919;28;20028;-56
2020/12/07 21:32:48;;;;;;;17.25;9.98;;;19.50;90.70;;;;;;5092097;28;20024;-56
2020/12/07 21:35:14;;;;;;;17.10;8.85;;;19.40;90.90;;;;;;5073891;28;20028;-56
2020/12/07 21:37:40;;;;;;;17.00;10.18;;;19.50;90.60;;;;;;5073171;28;20032;-56
2020/12/07 21:40:07;;;;;;;15.48;9.45;;;19.40;90.60;;;;;;5091813;28;20035;-56
2020/12/07 21:42:34;;;;;;;16.20;9.80;;;19.40;90.60;;;;;;5073506;28;20020;-56
2020/12/07 21:45:00;;;;;;;16.92;9.88;;;19.40;90.60;;;;;;5092157;28;20048;-56
2020/12/07 21:47:26;;;;;;;18.13;9.75;;;19.40;90.60;;;;;;5092030;28;20031;-57
2020/12/07 21:49:51;;;;;;;18.88;10.30;;;19.40;90.50;;;;;;5092309;28;20024;-56
2020/12/07 21:52:17;;;;;;;19.08;10.63;;;19.40;90.50;;;;;;5091703;28;20099;-56
2020/12/07 21:54:46;;;;;;;19.02;11.52;;;19.40;90.50;;;;;;5089387;28;20452;-56
2020/12/07 21:57:13;;;;;;;23.35;11.13;;;19.40;90.40;;;;;;5092191;28;20348;-56
2020/12/07 21:59:39;;;;;;;24.95;12.43;;;19.40;90.50;;;;;;5091591;28;20038;-56
2020/12/07 22:02:04;;;;;;;25.52;13.00;;;19.40;90.50;;;;;;5092082;28;20024;-56
2020/12/07 22:04:30;;;;;;;27.60;14.38;;;19.40;90.60;;;;;;5091564;28;20055;-57
2020/12/07 22:06:55;;;;;;;26.02;13.80;;;19.40;90.60;;;;;;5073601;28;20349;-56
2020/12/07 22:09:21;;;;;;;28.38;13.98;;;19.40;90.60;;;;;;5073340;28;20125;-56
2020/12/07 22:11:47;;;;;;;34.13;14.90;;;19.40;90.60;;;;;;5092023;28;20027;-56
2020/12/07 22:14:12;;;;;;;26.92;14.52;;;19.40;90.70;;;;;;5091276;28;20060;-56
2020/12/07 22:16:38;;;;;;;23.60;13.07;;;19.40;90.70;;;;;;5091492;28;20085;-56
2020/12/07 22:19:03;;;;;;;29.30;14.15;;;19.40;90.70;;;;;;5091628;28;20024;-56
2020/12/07 22:21:29;;;;;;;27.83;12.93;;;19.40;90.70;;;;;;5071684;28;20498;-56
2020/12/07 22:23:55;;;;;;;26.52;13.52;;;19.40;90.70;;;;;;5073220;28;20042;-56
2020/12/07 22:26:23;;;;;;;28.42;14.15;;;19.40;90.70;;;;;;5091695;28;20026;-56
2020/12/07 22:28:49;;;;;;;28.38;14.45;;;19.40;90.70;;;;;;5091718;28;20025;-56
2020/12/07 22:31:15;;;;;;;27.40;13.48;;;19.40;90.60;;;;;;5074042;28;20038;-56
2020/12/07 22:33:40;;;;;;;29.75;14.27;;;19.40;90.60;;;;;;5095175;28;20031;-56
2020/12/07 22:36:06;;;;;;;25.40;13.82;;;19.40;90.60;;;;;;5095427;28;20028;-56
2020/12/07 22:38:32;;;;;;;25.75;13.68;;;19.40;90.60;;;;;;5095525;28;20012;-56
2020/12/07 22:40:57;;;;;;;23.23;14.23;;;19.40;90.60;;;;;;5095347;28;20020;-56
2020/12/07 22:43:23;;;;;;;27.52;14.93;;;19.40;90.60;;;;;;5095333;28;20024;-56
2020/12/07 22:45:49;;;;;;;24.50;13.90;;;19.30;90.60;;;;;;5094463;28;20092;-56
2020/12/07 22:48:15;;;;;;;25.05;13.07;;;19.40;90.60;;;;;;5093447;28;20020;-56
2020/12/07 22:50:40;;;;;;;29.15;13.65;;;19.40;90.50;;;;;;5077000;28;20023;-56
2020/12/07 22:53:06;;;;;;;23.20;12.77;;;19.30;90.50;;;;;;5094942;28;20024;-56
2020/12/07 22:55:31;;;;;;;27.98;13.93;;;19.40;90.50;;;;;;5094655;28;20028;-56
2020/12/07 22:57:57;;;;;;;26.77;13.35;;;19.40;90.50;;;;;;5095009;28;20031;-56
2020/12/07 23:00:29;;;;;;;22.60;12.70;;;19.30;90.50;;;;;;5094505;28;20073;-56
2020/12/07 23:02:54;;;;;;;25.20;12.57;;;19.30;90.40;;;;;;5094699;28;20027;-56
2020/12/07 23:05:20;;;;;;;21.45;12.60;;;19.30;90.40;;;;;;5094634;28;20089;-56
2020/12/07 23:07:45;;;;;;;24.08;13.07;;;19.30;90.40;;;;;;5094594;28;20432;-56
2020/12/07 23:10:11;;;;;;;26.40;12.23;;;19.40;90.40;;;;;;5076456;28;20024;-56
2020/12/07 23:12:36;;;;;;;24.42;12.13;;;19.30;90.40;;;;;;5076324;28;20123;-56
2020/12/07 23:15:02;;;;;;;26.73;13.80;;;19.40;90.40;;;;;;5092487;28;20024;-56
2020/12/07 23:17:28;;;;;;;24.88;13.23;;;19.40;90.40;;;;;;5094463;28;20016;-56
2020/12/07 23:19:53;;;;;;;22.80;11.70;;;19.30;90.40;;;;;;5094787;28;20069;-56
2020/12/07 23:22:19;;;;;;;20.85;11.95;;;19.40;90.40;;;;;;5094624;28;20467;-56
2020/12/07 23:24:45;;;;;;;20.02;11.98;;;19.40;90.40;;;;;;5094393;28;20027;-56
2020/12/07 23:27:11;;;;;;;27.52;13.80;;;19.30;90.30;;;;;;5094531;28;20024;-56
2020/12/07 23:29:37;;;;;;;24.42;12.95;;;19.30;90.30;;;;;;5094290;28;20488;-56
2020/12/07 23:32:04;;;;;;;23.95;13.93;;;19.30;90.30;;;;;;5076088;28;20031;-56
2020/12/07 23:34:32;;;;;;;24.33;11.98;;;19.30;90.30;;;;;;5094251;28;20014;-57
2020/12/07 23:37:02;;;;;;;25.77;14.18;;;19.40;90.30;;;;;;5076027;28;20111;-56
2020/12/07 23:39:28;;;;;;;21.30;10.75;;;19.30;90.20;;;;;;5076182;28;20028;-56
2020/12/07 23:41:55;;;;;;;20.35;12.25;;;19.30;90.20;;;;;;5092667;28;20095;-56
2020/12/07 23:44:21;;;;;;;23.52;11.45;;;19.30;90.20;;;;;;5075569;28;20101;-56
2020/12/07 23:46:47;;;;;;;21.13;12.23;;;19.30;90.20;;;;;;5093864;28;20024;-56
2020/12/07 23:49:13;;;;;;;22.98;12.25;;;19.30;90.20;;;;;;5093898;28;20028;-56
2020/12/07 23:51:38;;;;;;;25.15;13.25;;;19.30;90.20;;;;;;5094034;28;20087;-56
2020/12/07 23:54:04;;;;;;;19.15;11.60;;;19.30;90.20;;;;;;5094274;28;20153;-55
2020/12/07 23:56:30;;;;;;;21.48;12.45;;;19.30;90.20;;;;;;5093464;28;20024;-56
2020/12/07 23:58:55;;;;;;;25.50;11.43;;;19.30;90.20;;;;;;5093916;28;20383;-56
